Greenfield, Massachusetts
Current Conditions -  °F | °C
As of 4:52 PM on Friday 24 Oct 2014 (Local Time) from KORE Reporting Station
Overcast Overcast  
Wind Chill: 44°   Ceiling: 2400
Heat Index: 49°   Visibility: 10mi
Dew Point: 40°   Wind: 12mph
Humidity: 71%   Direction: 320°NW
Pressure: 29.75"   Gusts: 21mph
Location:  42.59°N, 72.6°W
Report Text: KORE 242052Z AUTO 32010G18KT 10SM OVC024 09/04 A2975 RMK AO2 SLP075 T00940044 53006
Loading
Personal Weather Stations






























Interactive Weather Map
Tropical Storm Tracking
New forecast layout! Learn more

10-Day Weather Forecast

Advertisements
Track Severe Weather on mobile